West Palm Beach, FL (33406)

5:57 PM EDT on October 01, 2014 (GMT -0400)
LCS Police HQ / EOC | Change Station
CLOSE
Current Station
Personal Weather Station
Location: Lake Clarke Shores, FL
Elevation: 30 ft
Nearby Weather Stations

Elev 30 ft 26.65 °N, 80.08 °W | Updated 9 seconds ago

Overcast
Overcast
82.8 °F
Feels Like 89 °F
N
3.1
Wind Variable Wind from North
Gusts 25.4 mph

Today
High -- | Low -- °F
--% Chance of Precip.
Yesterday
High -- | Low -- °F
Precip. -- in
7:12 AM 7:06 PM
Waxing Crescent, 51% visible
Pressure 29.88 in
Visibility 10.0 miles
Clouds Few 1500 ft
Mostly Cloudy 3600 ft
Mostly Cloudy 5500 ft
Heat Index 89 °F
Dew Point 73 °F
Humidity 73%
Rainfall 1.50 in
Snow Depth Not available.
UV 1 out of 12
Pollen 4.60 out of 12
Ozone Good
PM2.5 Good
Flu Activity Not available.
METAR KPBI 012153Z 24010G20KT 10SM -TSRA FEW015 BKN036CB BKN055 27/24 A2988 RMK AO2 WSHFT 2134 RAB35 TSB40 SLP118 FRQ LTGICCCCG OHD-SW-W TS OHD-SW-W MOV E TCU SE-S P0004 T02720239 $

More Conditions Fewer Conditions

Pressure 29.88 in
Visibility 10.0 miles
Clouds Few 1500 ft
Mostly Cloudy 3600 ft
Mostly Cloudy 5500 ft
Heat Index 89 °F
Dew Point 73 °F
Humidity 73%
Rainfall 1.50 in
Snow Depth Not available.
UV 1 out of 12
Pollen 4.60 out of 12
Ozone Good
PM2.5 Good
Flu Activity Not available.
METAR KPBI 012153Z 24010G20KT 10SM -TSRA FEW015 BKN036CB BKN055 27/24 A2988 RMK AO2 WSHFT 2134 RAB35 TSB40 SLP118 FRQ LTGICCCCG OHD-SW-W TS OHD-SW-W MOV E TCU SE-S P0004 T02720239 $

More Conditions Fewer Conditions

10-Day Weather Forecast

Almanac

Astronomy

Oct. 01, 2014 Rise Set
Actual Time 7:12 AM EDT 7:06 PM EDT
Civil Twilight 6:49 AM EDT 7:29 PM EDT
Nautical Twilight 6:22 AM EDT 7:56 PM EDT
Astronomical Twilight 5:55 AM EDT 8:23 PM EDT
Moon 1:49 PM EDT 12:00 AM EDT
Length of Visible Light 12h 40m
Length of Day
11h 53m
Tomorrow will be 1m 33s shorter.
Waxing Crescent, 51% of the Moon is Illuminated
Today
Waxing Crescent
Oct 8
Full
Oct 15
Last Quarter
Oct 23
New
Oct 30
First Quarter

Today's Extremes

State Highs State Lows

Community

WunderPhotos

Upload Photos

1,758,057 photos uploaded!

WunderBlogs® & News

By Dr. Jeff Masters
Director of Meteorology, Weather Underground
By Kari Strenfel
Meteorologist, Weather Underground
By Christopher C. Burt
Weather Historian, Weather Underground
October 1, 2014
October 1, 2014
October 1, 2014

Nearby

Air Quality

  Air Quality AQ Index Pollutant
Yesterday Good
PM2.5
Yesterday Good
OZONE
Current Good
PM2.5
Current Good
OZONE
Wednesday Good
OZONE
Wednesday Good
PM2.5
Thursday Good
OZONE
Thursday Good
PM2.5
Friday Good
OZONE
Friday Good
PM2.5

Snow Depth

Station Depth Elevation
No new snow has been reported.

Earthquake Activity

City Distance Mag. Time & Date
No recent earthquake activity has been reported nearby.
Minimum magnitude displayed is 2.5.

Coastal Water Temperatures

Place Temperature
Lake Worth, FL 84.9 °F
Virginia Key, FL 86.0 °F

Nearby Weather Stations